Time;durP1;ratioP1;P1;durP2;ratioP2;P2;SDS_P1;SDS_P2;PMS_P1;PMS_P2;Temp;Humidity;BMP_temperature;BMP_pressure;BME280_temperature;BME280_humidity;BME280_pressure;Samples;Min_cycle;Max_cycle;Signal;HPM_P1;HPM_P2
2021/03/13 00:01:07;;;;;;;27.77;26.38;;;27.30;99.90;;;;;;5097114;28;20024;-65
2021/03/13 00:03:35;;;;;;;29.00;27.70;;;27.60;99.90;;;;;;5097113;28;20073;-65
2021/03/13 00:06:02;;;;;;;29.60;28.38;;;27.80;99.90;;;;;;5097191;28;20471;-64
2021/03/13 00:08:33;;;;;;;27.70;26.50;;;27.90;99.90;;;;;;5097257;28;20056;-65
2021/03/13 00:11:01;;;;;;;26.92;25.83;;;28.10;99.90;;;;;;5096979;28;20501;-65
2021/03/13 00:13:29;;;;;;;27.55;26.25;;;28.20;99.90;;;;;;5096495;28;20403;-66
2021/03/13 00:15:56;;;;;;;25.13;24.13;;;28.30;99.90;;;;;;5096602;28;20021;-65
2021/03/13 00:18:23;;;;;;;23.42;22.25;;;28.50;99.90;;;;;;5096777;28;20012;-65
2021/03/13 00:20:51;;;;;;;21.95;20.85;;;28.60;99.90;;;;;;5096628;28;20035;-64
2021/03/13 00:23:18;;;;;;;20.70;19.70;;;28.60;99.90;;;;;;5097129;28;20102;-65
2021/03/13 00:25:46;;;;;;;19.13;18.33;;;28.70;99.90;;;;;;5096557;28;20020;-64
2021/03/13 00:28:14;;;;;;;18.38;17.50;;;28.80;99.90;;;;;;5095188;28;20032;-65
2021/03/13 00:30:47;;;;;;;16.60;15.77;;;28.90;99.90;;;;;;5096516;28;20500;-65
2021/03/13 00:33:28;;;;;;;14.73;14.13;;;29.00;99.90;;;;;;5096369;28;20020;-65
2021/03/13 00:35:55;;;;;;;16.48;15.77;;;29.30;99.90;;;;;;5096419;28;20467;-65
2021/03/13 00:38:23;;;;;;;16.00;15.40;;;29.40;99.90;;;;;;5096730;28;20031;-65
2021/03/13 00:40:52;;;;;;;15.85;15.25;;;29.30;99.90;;;;;;5094720;28;20048;-65
2021/03/13 00:43:20;;;;;;;14.93;14.23;;;29.30;99.90;;;;;;5094967;28;20408;-65
2021/03/13 00:45:49;;;;;;;13.95;13.32;;;29.40;99.90;;;;;;5096270;28;20105;-65
2021/03/13 00:48:17;;;;;;;13.80;13.20;;;29.40;99.90;;;;;;5096509;28;20065;-66
2021/03/13 00:50:46;;;;;;;13.52;12.82;;;29.70;99.90;;;;;;5095891;28;20043;-66
2021/03/13 00:53:14;;;;;;;12.00;11.50;;;29.80;99.90;;;;;;5095866;28;20112;-65
2021/03/13 00:55:42;;;;;;;12.45;11.65;;;29.90;99.90;;;;;;5095999;28;20488;-65
2021/03/13 00:58:10;;;;;;;12.50;11.75;;;30.00;99.90;;;;;;5095301;28;20024;-66
2021/03/13 01:00:38;;;;;;;11.35;10.75;;;29.60;99.90;;;;;;5095899;28;20020;-66
2021/03/13 01:03:06;;;;;;;10.10;9.57;;;29.80;99.90;;;;;;5095889;28;20030;-67
2021/03/13 01:05:34;;;;;;;10.43;9.80;;;29.60;99.90;;;;;;5096275;28;20028;-65
2021/03/13 01:08:04;;;;;;;11.13;10.63;;;29.90;99.90;;;;;;5094166;28;20035;-66
2021/03/13 01:10:35;;;;;;;10.40;9.90;;;30.10;99.90;;;;;;5095652;28;20165;-66
2021/03/13 01:13:03;;;;;;;11.45;10.75;;;30.20;99.90;;;;;;5095526;28;20249;-65
2021/03/13 01:15:31;;;;;;;10.30;9.80;;;30.40;99.90;;;;;;5095559;28;20039;-66
2021/03/13 01:18:00;;;;;;;10.20;9.70;;;30.40;99.90;;;;;;5095582;28;20437;-66
2021/03/13 01:20:28;;;;;;;10.23;9.63;;;30.50;99.90;;;;;;5095554;28;20030;-66
2021/03/13 01:22:55;;;;;;;9.90;9.50;;;30.70;99.90;;;;;;5095383;28;20103;-66
2021/03/13 01:25:23;;;;;;;9.75;9.25;;;30.70;99.90;;;;;;5095509;28;20070;-65
2021/03/13 01:27:50;;;;;;;9.27;8.88;;;30.90;99.90;;;;;;5096704;28;20059;-65
2021/03/13 01:30:21;;;;;;;9.57;9.18;;;30.90;99.90;;;;;;5095225;28;20035;-66
2021/03/13 01:32:53;;;;;;;9.25;8.70;;;31.00;99.90;;;;;;5095121;28;20484;-66
2021/03/13 01:35:21;;;;;;;8.65;8.32;;;31.00;99.90;;;;;;5095321;28;20073;-66
2021/03/13 01:37:49;;;;;;;9.23;8.77;;;31.20;99.90;;;;;;5095189;28;20035;-66
2021/03/13 01:40:17;;;;;;;8.63;8.27;;;31.30;99.90;;;;;;5094922;28;20120;-66
2021/03/13 01:42:49;;;;;;;8.40;8.10;;;31.30;99.90;;;;;;5094992;28;20503;-66
2021/03/13 01:45:20;;;;;;;6.65;6.25;;;31.50;99.90;;;;;;5094958;28;20024;-66
2021/03/13 01:47:49;;;;;;;7.45;7.10;;;31.50;99.90;;;;;;5095030;28;20016;-66
2021/03/13 01:50:18;;;;;;;6.73;6.43;;;31.70;99.90;;;;;;5094630;28;20026;-66
2021/03/13 01:52:49;;;;;;;7.75;7.15;;;31.80;99.90;;;;;;5094672;28;20432;-65
2021/03/13 01:55:18;;;;;;;7.70;7.10;;;31.90;99.90;;;;;;5095105;28;20026;-65
2021/03/13 01:57:45;;;;;;;7.80;7.30;;;31.70;99.90;;;;;;5094741;28;20020;-65
2021/03/13 02:00:19;;;;;;;8.48;7.88;;;31.60;99.90;;;;;;5094619;28;20387;-65
2021/03/13 02:02:47;;;;;;;8.57;7.97;;;31.20;99.90;;;;;;5095230;28;20024;-65
2021/03/13 02:05:17;;;;;;;8.15;7.65;;;31.10;99.90;;;;;;5094529;28;20034;-65
2021/03/13 02:07:53;;;;;;;8.13;7.53;;;31.20;99.90;;;;;;5094939;28;20032;-65
2021/03/13 02:11:02;;;;;;;8.30;7.75;;;31.00;99.90;;;;;;5093368;28;20070;-64
2021/03/13 02:13:36;;;;;;;8.25;7.55;;;31.30;99.90;;;;;;5095086;28;20165;-65
2021/03/13 02:16:06;;;;;;;8.55;7.30;;;31.50;99.90;;;;;;5094597;28;20023;-65
2021/03/13 02:18:39;;;;;;;;;;;31.10;99.90;;;;;;5095278;28;20043;-65
2021/03/13 02:21:15;;;;;;;7.70;7.18;;;30.70;99.90;;;;;;5094920;28;20276;-65
2021/03/13 02:24:22;;;;;;;9.02;8.32;;;30.50;99.90;;;;;;5094153;28;20480;-66
2021/03/13 02:26:56;;;;;;;9.10;8.45;;;30.30;99.90;;;;;;5094182;28;20032;-65
2021/03/13 02:29:40;;;;;;;7.43;6.93;;;30.00;99.90;;;;;;5093968;28;20542;-66
2021/03/13 02:32:46;;;;;;;8.20;7.60;;;29.80;99.90;;;;;;5094067;28;20480;-65
2021/03/13 02:35:28;;;;;;;7.38;6.97;;;29.70;99.90;;;;;;5012227;28;20485;-67
2021/03/13 02:38:01;;;;;;;8.50;7.90;;;29.50;99.90;;;;;;5083511;28;20556;-65
2021/03/13 02:40:31;;;;;;;8.70;8.20;;;29.50;99.90;;;;;;5093855;28;20048;-65
2021/03/13 02:43:04;;;;;;;8.90;8.25;;;29.80;99.90;;;;;;5094104;28;20361;-65
2021/03/13 02:45:34;;;;;;;8.98;8.10;;;30.00;99.90;;;;;;5093826;28;20032;-65
2021/03/13 02:48:05;;;;;;;8.70;8.20;;;30.20;99.90;;;;;;5093892;28;20028;-65
2021/03/13 02:50:34;;;;;;;9.27;8.38;;;30.70;99.90;;;;;;5093661;28;20024;-65
2021/03/13 02:53:02;;;;;;;8.57;7.78;;;30.50;99.90;;;;;;5093439;28;20123;-65
2021/03/13 02:55:31;;;;;;;9.07;8.48;;;30.20;99.90;;;;;;5093728;28;20027;-65
2021/03/13 02:58:02;;;;;;;8.60;7.90;;;30.10;99.90;;;;;;5093676;28;20020;-66
2021/03/13 03:00:34;;;;;;;7.72;7.15;;;30.10;99.90;;;;;;5092383;28;20521;-65
2021/03/13 03:03:02;;;;;;;9.38;8.68;;;30.50;99.90;;;;;;5093651;28;20024;-66
2021/03/13 03:05:30;;;;;;;8.43;7.80;;;30.80;99.90;;;;;;5093452;28;20028;-65
2021/03/13 03:08:02;;;;;;;8.25;7.50;;;31.00;99.90;;;;;;5093485;28;20032;-66
2021/03/13 03:10:36;;;;;;;8.32;7.72;;;31.30;99.90;;;;;;5092758;28;20054;-66
2021/03/13 03:13:06;;;;;;;7.10;6.50;;;31.50;99.90;;;;;;5094056;28;20483;-65
2021/03/13 03:15:34;;;;;;;7.45;6.93;;;31.50;99.90;;;;;;5093875;28;20016;-65
2021/03/13 03:18:11;;;;;;;6.90;6.50;;;31.50;99.90;;;;;;5093354;28;20020;-65
2021/03/13 03:20:39;;;;;;;7.50;6.75;;;31.10;99.90;;;;;;5092899;28;20077;-67
2021/03/13 03:23:07;;;;;;;8.35;7.68;;;30.80;99.90;;;;;;5093138;28;20472;-66
2021/03/13 03:25:35;;;;;;;8.45;7.85;;;30.70;99.90;;;;;;5093205;28;20373;-65
2021/03/13 03:28:02;;;;;;;8.60;8.00;;;30.60;99.90;;;;;;5093182;28;20020;-65
2021/03/13 03:30:32;;;;;;;8.20;7.70;;;30.70;99.90;;;;;;5092900;28;20036;-65
2021/03/13 03:33:01;;;;;;;8.27;7.78;;;30.60;99.90;;;;;;5093512;28;20071;-65
2021/03/13 03:35:29;;;;;;;8.45;7.72;;;30.30;99.90;;;;;;5093154;28;20027;-66
2021/03/13 03:37:59;;;;;;;8.25;7.75;;;29.80;99.90;;;;;;5093115;28;20027;-65
2021/03/13 03:40:30;;;;;;;8.90;8.20;;;29.30;99.90;;;;;;5093023;28;20052;-66
2021/03/13 03:43:09;;;;;;;10.00;9.30;;;29.10;99.90;;;;;;5091796;28;20067;-65
2021/03/13 03:45:37;;;;;;;9.82;9.30;;;28.90;99.90;;;;;;5093409;28;20028;-66
2021/03/13 03:48:11;;;;;;;10.40;9.75;;;29.00;99.90;;;;;;5093271;28;20020;-66
2021/03/13 03:50:39;;;;;;;8.85;8.25;;;29.50;99.90;;;;;;5093356;28;20031;-65
2021/03/13 03:53:13;;;;;;;9.82;9.05;;;30.10;99.90;;;;;;5092946;28;20387;-67
2021/03/13 03:55:44;;;;;;;7.78;7.30;;;30.50;99.90;;;;;;5092943;28;20031;-67
2021/03/13 03:58:16;;;;;;;7.43;6.93;;;30.50;99.90;;;;;;5092853;28;20052;-65
2021/03/13 04:00:45;;;;;;;7.90;7.38;;;30.00;99.90;;;;;;5092968;28;20107;-65
2021/03/13 04:03:15;;;;;;;7.65;7.15;;;29.60;99.90;;;;;;5092904;28;20027;-65
2021/03/13 04:05:43;;;;;;;7.90;7.40;;;29.50;99.90;;;;;;5092827;28;20035;-66
2021/03/13 04:08:18;;;;;;;7.72;7.15;;;30.10;99.90;;;;;;5092770;28;20499;-66
2021/03/13 04:10:50;;;;;;;7.90;7.22;;;30.00;99.90;;;;;;5092615;28;20020;-65
2021/03/13 04:13:21;;;;;;;7.65;7.13;;;29.50;99.90;;;;;;5092834;28;20019;-65
2021/03/13 04:15:50;;;;;;;8.23;7.50;;;29.30;99.90;;;;;;5092718;28;20024;-65
2021/03/13 04:18:18;;;;;;;8.13;7.72;;;29.20;99.90;;;;;;5092797;28;20073;-65
2021/03/13 04:20:51;;;;;;;9.27;8.50;;;29.00;99.90;;;;;;5092742;28;20035;-65
2021/03/13 04:23:23;;;;;;;9.38;8.80;;;28.70;99.90;;;;;;5092768;28;20020;-66
2021/03/13 04:25:52;;;;;;;8.80;8.20;;;28.50;99.90;;;;;;5092598;28;20068;-65
2021/03/13 04:28:21;;;;;;;10.70;10.10;;;28.30;99.90;;;;;;5093030;28;20035;-68
2021/03/13 04:30:50;;;;;;;9.82;9.02;;;28.00;99.90;;;;;;5092601;28;20027;-66
2021/03/13 04:33:19;;;;;;;9.20;8.50;;;27.90;99.90;;;;;;5094564;28;20031;-66
2021/03/13 04:35:51;;;;;;;8.95;8.45;;;27.80;99.90;;;;;;5096303;28;20166;-67
2021/03/13 04:38:20;;;;;;;8.98;8.38;;;27.90;99.90;;;;;;5097003;28;20020;-67
2021/03/13 04:40:49;;;;;;;9.35;8.60;;;27.90;99.90;;;;;;5096230;28;20350;-66
2021/03/13 04:43:20;;;;;;;8.63;8.00;;;28.30;99.90;;;;;;5096265;28;20357;-66
2021/03/13 04:45:49;;;;;;;8.50;8.00;;;28.70;99.90;;;;;;5095377;28;20021;-66
2021/03/13 04:48:16;;;;;;;7.88;7.47;;;29.10;99.90;;;;;;5096210;28;20480;-66
2021/03/13 04:50:44;;;;;;;8.25;7.75;;;29.40;99.90;;;;;;5096417;28;20031;-66
2021/03/13 04:53:11;;;;;;;8.43;7.43;;;29.70;99.90;;;;;;5096006;28;20016;-66
2021/03/13 04:55:39;;;;;;;7.68;6.85;;;29.80;99.90;;;;;;5095935;28;20095;-66
2021/03/13 04:58:06;;;;;;;7.25;6.80;;;29.50;99.90;;;;;;5096761;28;20016;-65
2021/03/13 05:00:33;;;;;;;8.20;7.60;;;29.20;99.90;;;;;;5096146;28;20069;-66
2021/03/13 05:03:01;;;;;;;8.57;7.85;;;29.30;99.90;;;;;;5095814;28;20031;-65
2021/03/13 05:05:32;;;;;;;9.38;8.57;;;29.40;99.90;;;;;;5095854;28;20051;-66
2021/03/13 05:08:00;;;;;;;7.55;6.95;;;29.80;99.90;;;;;;5095763;28;20124;-66
2021/03/13 05:10:28;;;;;;;8.57;7.78;;;29.60;99.90;;;;;;5095533;28;20031;-65
2021/03/13 05:12:56;;;;;;;8.80;7.95;;;29.70;99.90;;;;;;5095851;28;20017;-66
2021/03/13 05:15:23;;;;;;;9.68;8.73;;;29.80;99.90;;;;;;5095627;28;20021;-66
2021/03/13 05:17:51;;;;;;;9.63;8.82;;;29.40;99.90;;;;;;5095600;28;20040;-66
2021/03/13 05:20:19;;;;;;;8.60;7.78;;;29.20;99.90;;;;;;5095480;28;20092;-66
2021/03/13 05:22:51;;;;;;;8.30;7.63;;;29.10;99.90;;;;;;5094041;28;20028;-66
2021/03/13 05:25:19;;;;;;;9.50;8.73;;;29.00;99.90;;;;;;5095516;28;20027;-68
2021/03/13 05:27:47;;;;;;;8.20;6.63;;;28.70;99.90;;;;;;5095079;28;20031;-67
2021/03/13 05:30:15;;;;;;;6.75;6.10;;;29.00;99.90;;;;;;5095061;28;20020;-66
2021/03/13 05:32:43;;;;;;;6.70;6.10;;;29.30;99.90;;;;;;5095836;28;20492;-67
2021/03/13 05:35:12;;;;;;;7.00;6.47;;;29.50;99.90;;;;;;5095189;28;20016;-66
2021/03/13 05:37:41;;;;;;;8.93;8.13;;;29.40;99.90;;;;;;5095198;28;20035;-66
2021/03/13 05:40:10;;;;;;;7.93;7.32;;;29.50;99.90;;;;;;5094060;28;20419;-66
2021/03/13 05:42:39;;;;;;;8.45;7.63;;;29.50;99.90;;;;;;5095249;28;20533;-66
2021/03/13 05:45:08;;;;;;;8.73;7.45;;;29.30;99.90;;;;;;5094842;28;20081;-67
2021/03/13 05:47:39;;;;;;;6.70;6.10;;;28.80;99.90;;;;;;5095039;28;20036;-67
2021/03/13 05:50:12;;;;;;;8.43;7.65;;;28.60;99.90;;;;;;5094794;28;20394;-67
2021/03/13 05:52:43;;;;;;;7.55;6.85;;;28.40;99.90;;;;;;5095241;28;20026;-67
2021/03/13 05:55:11;;;;;;;7.68;7.07;;;28.20;99.90;;;;;;5094943;28;20027;-67
2021/03/13 05:57:39;;;;;;;8.00;7.40;;;28.10;99.90;;;;;;5094835;28;20472;-67
2021/03/13 06:00:07;;;;;;;8.57;7.63;;;28.40;99.90;;;;;;5094915;28;20016;-66
2021/03/13 06:02:37;;;;;;;7.85;7.30;;;28.40;99.90;;;;;;5094560;28;20020;-66
2021/03/13 06:05:06;;;;;;;9.40;8.50;;;28.50;99.90;;;;;;5094661;28;20028;-67
2021/03/13 06:07:33;;;;;;;8.77;7.95;;;28.80;99.90;;;;;;5094744;28;20487;-66
2021/03/13 06:10:01;;;;;;;8.85;8.15;;;29.00;99.90;;;;;;5094524;28;20500;-67
2021/03/13 06:12:29;;;;;;;8.88;8.07;;;29.00;99.90;;;;;;5094529;28;20027;-67
2021/03/13 06:14:57;;;;;;;8.60;7.90;;;29.00;99.90;;;;;;5094491;28;20020;-67
2021/03/13 06:17:25;;;;;;;7.13;6.47;;;29.10;99.90;;;;;;5094436;28;20087;-66
2021/03/13 06:19:53;;;;;;;7.70;7.00;;;29.40;99.90;;;;;;5094351;28;20024;-68
2021/03/13 06:22:34;;;;;;;9.77;7.93;;;29.50;99.90;;;;;;5094362;28;20099;-67
2021/03/13 06:25:18;;;;;;;8.57;7.70;;;29.50;99.90;;;;;;5094455;28;20035;-67
2021/03/13 06:27:50;;;;;;;8.45;7.78;;;29.70;99.90;;;;;;5094285;28;20028;-67
2021/03/13 06:30:19;;;;;;;8.77;8.05;;;29.90;99.90;;;;;;5093987;28;20042;-66
2021/03/13 06:32:46;;;;;;;8.05;7.28;;;30.10;99.90;;;;;;5093952;28;20055;-67
2021/03/13 06:35:21;;;;;;;8.10;7.40;;;30.50;99.90;;;;;;5093909;28;20081;-67
2021/03/13 06:37:49;;;;;;;7.82;7.25;;;31.10;99.90;;;;;;5094028;28;20028;-67
2021/03/13 06:40:36;;;;;;;8.82;7.38;;;31.10;99.90;;;;;;5093802;28;20118;-67
2021/03/13 06:43:23;;;;;;;7.82;7.30;;;31.60;99.90;;;;;;5093371;28;20059;-67
2021/03/13 06:46:04;;;;;;;7.80;7.18;;;31.80;99.90;;;;;;5093750;28;20061;-67
2021/03/13 06:48:45;;;;;;;8.27;7.20;;;32.50;99.90;;;;;;5094183;28;20124;-67
2021/03/13 06:51:18;;;;;;;8.23;7.50;;;32.10;99.90;;;;;;5093440;28;20391;-66
2021/03/13 06:54:05;;;;;;;8.30;6.07;;;32.70;99.90;;;;;;5094283;28;20449;-66
2021/03/13 06:56:44;;;;;;;7.13;6.53;;;32.90;99.90;;;;;;5093340;28;20069;-67
2021/03/13 06:59:26;;;;;;;7.40;6.60;;;32.30;99.90;;;;;;5093456;28;20023;-67
2021/03/13 07:02:11;;;;;;;7.38;6.78;;;31.90;99.90;;;;;;5092328;28;20054;-66
2021/03/13 07:04:43;;;;;;;7.57;6.88;;;30.90;99.90;;;;;;5093373;28;20016;-66
2021/03/13 07:07:26;;;;;;;7.47;6.88;;;31.00;99.90;;;;;;5093460;28;20016;-68
2021/03/13 07:09:58;;;;;;;8.32;7.47;;;30.90;99.90;;;;;;5093635;28;20031;-67
2021/03/13 07:12:36;;;;;;;7.25;6.57;;;31.90;99.90;;;;;;5093969;28;20016;-68
2021/03/13 07:15:24;;;;;;;6.68;6.07;;;31.90;99.90;;;;;;5093364;28;20098;-67
2021/03/13 07:17:52;;;;;;;7.50;6.97;;;30.70;99.90;;;;;;5093164;28;20414;-67
2021/03/13 07:20:24;;;;;;;8.07;7.47;;;29.70;99.90;;;;;;5093097;28;20041;-67
2021/03/13 07:22:59;;;;;;;8.98;8.15;;;28.90;99.90;;;;;;5093609;28;20024;-67
2021/03/13 07:25:28;;;;;;;7.88;7.38;;;28.30;99.90;;;;;;5093938;28;20028;-68
2021/03/13 07:27:57;;;;;;;6.93;5.50;;;27.60;99.90;;;;;;5093132;28;20063;-66
2021/03/13 07:30:27;;;;;;;7.57;6.97;;;27.50;99.90;;;;;;5093159;28;20024;-68
2021/03/13 07:33:02;;;;;;;7.55;6.90;;;27.20;99.90;;;;;;5093476;28;20043;-68
2021/03/13 07:35:35;;;;;;;8.23;7.63;;;27.10;99.90;;;;;;5093851;28;20020;-67
2021/03/13 07:38:05;;;;;;;8.55;7.75;;;27.00;99.90;;;;;;5092695;28;20073;-67
2021/03/13 07:40:39;;;;;;;8.17;7.53;;;26.90;99.90;;;;;;5093058;28;20055;-67
2021/03/13 07:43:10;;;;;;;9.63;8.65;;;26.80;99.90;;;;;;5093453;28;20263;-67
2021/03/13 07:45:38;;;;;;;9.18;8.30;;;26.80;99.90;;;;;;5091829;28;20097;-68
2021/03/13 07:48:08;;;;;;;8.30;7.68;;;26.70;99.90;;;;;;5093289;28;20016;-67
2021/03/13 07:50:36;;;;;;;10.30;8.40;;;26.50;99.90;;;;;;5093010;28;20024;-67
2021/03/13 07:53:05;;;;;;;10.35;7.32;;;26.50;99.90;;;;;;5093121;28;20369;-67
2021/03/13 07:55:33;;;;;;;9.60;8.80;;;26.50;99.90;;;;;;5093048;28;20078;-67
2021/03/13 07:58:02;;;;;;;8.18;7.63;;;26.40;99.90;;;;;;5093020;28;20534;-67
2021/03/13 08:00:49;;;;;;;8.13;7.45;;;26.40;99.90;;;;;;5093060;28;20028;-67
2021/03/13 08:03:45;;;;;;;8.80;8.00;;;26.30;99.90;;;;;;5093319;28;20040;-67
2021/03/13 08:06:15;;;;;;;9.02;8.32;;;26.20;99.90;;;;;;5093177;28;20031;-67
2021/03/13 08:08:45;;;;;;;9.25;8.43;;;26.10;99.90;;;;;;5096821;28;20039;-67
2021/03/13 08:11:17;;;;;;;9.30;8.55;;;26.20;99.90;;;;;;5096999;28;20077;-67
2021/03/13 08:13:48;;;;;;;9.30;8.80;;;26.10;99.90;;;;;;5096886;28;20020;-66
2021/03/13 08:16:21;;;;;;;8.65;8.05;;;26.00;99.90;;;;;;5096747;28;20022;-67
2021/03/13 08:18:53;;;;;;;8.80;8.30;;;26.00;99.90;;;;;;5097416;28;20020;-67
2021/03/13 08:21:23;;;;;;;9.60;9.00;;;26.00;99.90;;;;;;5095326;28;20477;-67
2021/03/13 08:23:53;;;;;;;9.18;8.55;;;25.90;99.90;;;;;;5096410;28;20396;-67
2021/03/13 08:26:24;;;;;;;8.73;8.18;;;25.80;99.90;;;;;;5096602;28;20424;-67
2021/03/13 08:28:56;;;;;;;9.50;8.85;;;25.90;99.90;;;;;;5096605;28;20380;-68
2021/03/13 08:31:29;;;;;;;9.68;8.82;;;25.90;99.90;;;;;;5096198;28;20028;-67
2021/03/13 08:34:20;;;;;;;9.20;8.63;;;25.80;99.90;;;;;;5096287;28;20028;-66
2021/03/13 08:36:51;;;;;;;10.38;9.60;;;25.70;99.90;;;;;;5096197;28;20024;-67
2021/03/13 08:39:26;;;;;;;9.65;8.95;;;25.80;99.90;;;;;;5096185;28;20055;-67
2021/03/13 08:41:57;;;;;;;10.07;9.10;;;25.60;99.90;;;;;;5096223;28;20023;-66
2021/03/13 08:44:33;;;;;;;9.50;8.80;;;25.60;99.90;;;;;;5096255;28;20067;-66
2021/03/13 08:47:11;;;;;;;9.77;9.15;;;25.70;99.90;;;;;;5096727;28;20027;-67
2021/03/13 08:49:48;;;;;;;9.60;8.90;;;25.60;99.90;;;;;;5096381;28;20502;-67
2021/03/13 08:52:20;;;;;;;10.55;9.75;;;25.60;99.90;;;;;;5096338;28;20020;-67
2021/03/13 08:54:49;;;;;;;9.32;8.63;;;25.60;99.90;;;;;;5095863;28;20024;-66
2021/03/13 08:57:44;;;;;;;9.80;9.13;;;25.60;99.90;;;;;;5095815;28;20463;-67
2021/03/13 09:00:15;;;;;;;10.05;9.07;;;25.50;99.90;;;;;;5096063;28;20380;-67
2021/03/13 09:02:43;;;;;;;8.60;8.00;;;25.60;99.90;;;;;;5095768;28;20122;-66
2021/03/13 09:05:12;;;;;;;8.95;8.35;;;25.60;99.90;;;;;;5095608;28;20032;-65
2021/03/13 09:07:47;;;;;;;9.85;9.05;;;25.60;99.90;;;;;;5095688;28;20119;-66
2021/03/13 09:10:15;;;;;;;7.63;6.80;;;25.70;99.90;;;;;;5096194;28;20024;-68
2021/03/13 09:12:44;;;;;;;8.57;7.93;;;25.60;99.90;;;;;;5095657;28;20106;-67
2021/03/13 09:15:13;;;;;;;7.72;7.13;;;25.60;99.90;;;;;;5094212;28;20016;-66
2021/03/13 09:17:40;;;;;;;7.90;7.25;;;25.60;99.90;;;;;;5095737;28;20420;-66
2021/03/13 09:20:16;;;;;;;8.80;8.20;;;25.70;99.90;;;;;;5095326;28;20464;-67
2021/03/13 09:22:46;;;;;;;9.10;8.27;;;25.70;99.90;;;;;;5094830;28;20081;-66
2021/03/13 09:25:22;;;;;;;8.43;7.80;;;25.70;99.90;;;;;;5096066;28;20024;-67
2021/03/13 09:27:53;;;;;;;8.90;8.30;;;25.60;99.90;;;;;;5095560;28;20028;-67
2021/03/13 09:30:23;;;;;;;9.23;8.52;;;25.60;99.90;;;;;;5095300;28;20060;-67
2021/03/13 09:32:52;;;;;;;9.77;9.07;;;25.60;99.90;;;;;;5095313;28;20020;-66
2021/03/13 09:35:25;;;;;;;9.90;9.30;;;25.60;99.90;;;;;;5095211;28;20043;-66
2021/03/13 09:37:52;;;;;;;9.90;9.20;;;25.60;99.90;;;;;;5095171;28;20024;-66
2021/03/13 09:40:28;;;;;;;9.60;9.05;;;25.70;99.90;;;;;;5094875;28;20131;-68
2021/03/13 09:42:55;;;;;;;8.55;8.07;;;25.70;99.90;;;;;;5095091;28;20024;-66
2021/03/13 09:45:24;;;;;;;9.35;8.60;;;25.60;99.90;;;;;;5095047;28;20488;-66
2021/03/13 09:47:59;;;;;;;8.82;8.10;;;25.60;99.90;;;;;;5094725;28;20452;-66
2021/03/13 09:50:35;;;;;;;8.25;7.63;;;25.60;99.90;;;;;;5094775;28;20107;-66
2021/03/13 09:53:04;;;;;;;8.10;7.60;;;25.60;99.90;;;;;;5094896;28;20525;-66
2021/03/13 09:55:32;;;;;;;8.20;7.57;;;25.60;99.90;;;;;;5095007;28;20020;-66
2021/03/13 09:58:01;;;;;;;8.85;8.10;;;25.70;99.90;;;;;;5094542;28;20051;-66
2021/03/13 10:00:34;;;;;;;9.68;8.88;;;25.70;99.90;;;;;;5094928;28;20533;-66
2021/03/13 10:03:02;;;;;;;7.47;7.07;;;25.70;99.90;;;;;;5094616;28;20032;-66
2021/03/13 10:05:31;;;;;;;8.00;7.50;;;25.70;99.90;;;;;;5095021;28;20139;-66
2021/03/13 10:08:06;;;;;;;8.27;7.57;;;25.70;99.90;;;;;;5094689;28;20072;-66
2021/03/13 10:10:34;;;;;;;6.25;5.70;;;25.80;99.90;;;;;;5094798;28;20102;-66
2021/03/13 10:13:04;;;;;;;5.97;5.53;;;25.80;99.90;;;;;;5094450;28;20104;-66
2021/03/13 10:15:41;;;;;;;6.22;5.65;;;25.80;99.90;;;;;;5094408;28;20133;-67
2021/03/13 10:18:14;;;;;;;5.07;4.78;;;25.70;99.90;;;;;;5094310;28;20039;-67
2021/03/13 10:20:51;;;;;;;5.80;5.30;;;25.80;99.90;;;;;;5094349;28;20364;-66
2021/03/13 10:23:31;;;;;;;6.72;6.30;;;25.80;99.90;;;;;;5094107;28;20024;-66
2021/03/13 10:26:07;;;;;;;6.32;5.82;;;25.80;99.90;;;;;;5094502;28;20154;-66
2021/03/13 10:28:37;;;;;;;8.85;8.25;;;25.80;99.90;;;;;;5092721;28;20107;-67
2021/03/13 10:31:12;;;;;;;7.55;7.05;;;25.70;99.90;;;;;;5093077;28;20487;-67
2021/03/13 10:33:41;;;;;;;8.27;7.60;;;25.70;99.90;;;;;;5093994;28;20021;-67
2021/03/13 10:36:10;;;;;;;8.38;7.90;;;25.70;99.90;;;;;;5094171;28;20047;-67
2021/03/13 10:38:48;;;;;;;8.30;7.70;;;25.70;99.90;;;;;;5093735;28;20388;-67
2021/03/13 10:41:22;;;;;;;7.93;7.32;;;25.60;99.90;;;;;;5093929;28;20028;-67
2021/03/13 10:43:52;;;;;;;8.65;8.07;;;25.60;99.90;;;;;;5093764;28;20032;-67
2021/03/13 10:46:21;;;;;;;8.00;7.60;;;25.60;99.90;;;;;;5093836;28;20027;-66
2021/03/13 10:48:53;;;;;;;9.00;8.50;;;25.60;99.90;;;;;;5093682;28;20024;-66
2021/03/13 10:51:22;;;;;;;9.52;8.93;;;25.60;99.90;;;;;;5093846;28;20028;-66
2021/03/13 10:53:50;;;;;;;9.95;9.25;;;25.60;99.90;;;;;;5092494;28;20031;-66
2021/03/13 10:56:18;;;;;;;9.68;8.90;;;25.50;99.90;;;;;;5093624;28;20048;-66
2021/03/13 10:58:51;;;;;;;9.15;8.55;;;25.50;99.90;;;;;;5093836;28;20024;-66
2021/03/13 11:01:20;;;;;;;8.20;7.70;;;25.40;99.90;;;;;;5093520;28;20024;-66
2021/03/13 11:03:50;;;;;;;10.57;9.70;;;25.40;99.90;;;;;;5093526;28;20481;-66
2021/03/13 11:06:32;;;;;;;10.15;9.55;;;25.50;99.90;;;;;;5093304;28;20024;-66
2021/03/13 11:09:17;;;;;;;9.98;9.45;;;25.50;99.90;;;;;;5093581;28;20031;-66
2021/03/13 11:11:44;;;;;;;10.10;9.50;;;25.40;99.90;;;;;;5093622;28;20024;-66
2021/03/13 11:14:12;;;;;;;10.60;10.00;;;25.40;99.90;;;;;;5094022;28;20070;-66
2021/03/13 11:16:39;;;;;;;11.77;11.13;;;25.50;99.90;;;;;;5093274;28;20052;-66
2021/03/13 11:19:07;;;;;;;11.90;11.10;;;25.40;99.90;;;;;;5093295;28;20016;-66
2021/03/13 11:21:35;;;;;;;12.88;12.10;;;25.40;99.90;;;;;;5093467;28;20086;-66
2021/03/13 11:24:03;;;;;;;12.27;11.65;;;25.40;99.90;;;;;;5093422;28;20111;-66
2021/03/13 11:26:30;;;;;;;13.07;12.23;;;25.40;99.90;;;;;;5093728;28;20425;-66
2021/03/13 11:28:57;;;;;;;13.80;12.95;;;25.40;99.90;;;;;;5093243;28;20016;-65
2021/03/13 11:31:25;;;;;;;13.88;13.18;;;25.50;99.90;;;;;;5092957;28;20111;-66
2021/03/13 11:33:52;;;;;;;13.70;12.85;;;25.60;99.90;;;;;;5093387;28;20024;-65
2021/03/13 11:36:19;;;;;;;14.38;13.57;;;25.60;99.90;;;;;;5093460;28;20380;-66
2021/03/13 11:38:47;;;;;;;14.35;13.55;;;25.60;99.90;;;;;;5092965;28;20027;-66
2021/03/13 11:41:15;;;;;;;15.00;14.15;;;25.60;99.90;;;;;;5092966;28;20024;-66
2021/03/13 11:43:43;;;;;;;14.60;13.90;;;25.60;99.90;;;;;;5093068;28;20024;-66
2021/03/13 11:46:11;;;;;;;13.95;13.05;;;25.70;99.90;;;;;;5092972;28;20020;-66
2021/03/13 11:48:41;;;;;;;13.13;12.32;;;25.70;99.90;;;;;;5093309;28;20021;-66
2021/03/13 11:51:09;;;;;;;14.80;13.98;;;25.70;99.90;;;;;;5093153;28;20024;-66
2021/03/13 11:53:37;;;;;;;14.68;13.70;;;25.70;99.90;;;;;;5093270;28;20118;-67
2021/03/13 11:56:05;;;;;;;14.70;13.90;;;25.70;99.90;;;;;;5093004;28;20024;-66
2021/03/13 11:58:32;;;;;;;14.25;13.38;;;25.60;99.90;;;;;;5093012;28;20016;-66
2021/03/13 12:00:59;;;;;;;13.45;12.75;;;25.60;99.90;;;;;;5092895;28;20039;-66
2021/03/13 12:03:27;;;;;;;14.93;13.85;;;25.70;99.90;;;;;;5093229;28;20107;-66
2021/03/13 12:05:54;;;;;;;14.98;14.15;;;25.70;99.90;;;;;;5092985;28;20385;-66
2021/03/13 12:08:21;;;;;;;15.50;14.70;;;25.70;99.90;;;;;;5092920;28;20035;-66
2021/03/13 12:10:49;;;;;;;15.15;14.35;;;25.70;99.90;;;;;;5092877;28;20392;-66
2021/03/13 12:13:16;;;;;;;14.25;13.48;;;25.60;99.90;;;;;;5092743;28;20044;-66
2021/03/13 12:15:44;;;;;;;15.90;15.00;;;25.60;99.90;;;;;;5092625;28;20457;-66
2021/03/13 12:18:11;;;;;;;15.68;15.05;;;25.60;99.90;;;;;;5092627;28;20055;-66
2021/03/13 12:20:39;;;;;;;16.17;15.30;;;25.60;99.90;;;;;;5092771;28;20544;-66
2021/03/13 12:23:06;;;;;;;16.20;15.30;;;25.60;99.90;;;;;;5092936;28;20460;-66
2021/03/13 12:25:34;;;;;;;16.50;15.45;;;25.70;99.90;;;;;;5092688;28;20461;-66
2021/03/13 12:28:01;;;;;;;16.73;15.90;;;25.60;99.90;;;;;;5092740;28;20178;-66
2021/03/13 12:30:28;;;;;;;17.65;16.73;;;25.60;99.90;;;;;;5091841;28;20020;-66
2021/03/13 12:32:56;;;;;;;17.65;16.80;;;25.50;99.90;;;;;;5092654;28;20415;-66
2021/03/13 12:35:24;;;;;;;17.48;16.50;;;25.50;99.90;;;;;;5092864;28;20025;-66
2021/03/13 12:37:52;;;;;;;16.27;15.45;;;25.50;99.90;;;;;;5092594;28;20402;-66
2021/03/13 12:40:20;;;;;;;17.52;16.73;;;25.50;99.90;;;;;;5092255;28;20131;-66
2021/03/13 12:42:47;;;;;;;18.27;17.42;;;25.50;99.90;;;;;;5092631;28;20099;-66
2021/03/13 12:45:15;;;;;;;19.40;18.35;;;25.50;99.90;;;;;;5092892;28;20446;-66
2021/03/13 12:47:42;;;;;;;19.60;18.70;;;25.60;99.90;;;;;;5092419;28;20027;-66
2021/03/13 12:50:10;;;;;;;19.35;18.45;;;25.50;99.90;;;;;;5092294;28;20032;-66
2021/03/13 12:52:38;;;;;;;20.88;19.88;;;25.50;99.90;;;;;;5092395;28;20020;-66
2021/03/13 12:55:06;;;;;;;21.33;20.33;;;25.40;99.90;;;;;;5095523;28;20401;-66
2021/03/13 12:57:33;;;;;;;21.27;20.17;;;25.40;99.90;;;;;;5096093;28;20017;-66
2021/03/13 13:00:00;;;;;;;21.35;20.45;;;25.40;99.90;;;;;;5095886;28;20016;-66